Sweeney, South Dakota
Current Conditions -  °F | °C
As of 11:16 PM on Tuesday 25 Nov 2014 (Local Time) from KPIR Reporting Station
Overcast Overcast  
Wind Chill: 25°   Ceiling: 3700
Heat Index: 36°   Visibility: 10mi
Dew Point: 30°   Wind: 22mph
Humidity: 79%   Direction: 320°NW
Pressure: 29.84"   Gusts: 31mph
Location:  43.909°N, 100.128°W
Report Text: KPIR 260516Z AUTO 32019G27KT 10SM SCT026 OVC037 02/M01 A2984 RMK AO2 PK WND 31027/0503 T00221011
Loading
Personal Weather Stations






























Interactive Weather Map New forecast layout! Learn more

10-Day Weather Forecast

Advertisements
Track Severe Weather on mobile